Terminal Aerodrome Forecast
Issued by NWS Jackson, MS

Home | Current Version | Previous Version | Text Only | Print | Product List | Glossary On
Versions: 1 2 3 4 5 6 7 8 9 10 11 12 13 14 15 16 17
000
FTUS44 KJAN 241734
TAFJAN
TAF
KJAN 241734Z 2418/2518 18016G22KT P6SM SCT020 BKN150
     FM242100 18018G25KT P6SM SCT030 BKN040
     FM250700 25020G30KT 2SM TSRA BKN012 OVC020CB
     FM251000 30011KT 5SM -RA BR OVC015
     FM251400 01008KT P6SM BKN020 OVC030=

USA.gov is the U.S. government's official web portal to all federal, state and local government web resources and services.